sensor_id;sensor_type;location;lat;lon;timestamp;P1;durP1;ratioP1;P2;durP2;ratioP2
41293;SDS011;27037;52.010;4.446;2022-08-26T00:02:18;7.70;;;1.55;;
41293;SDS011;27037;52.010;4.446;2022-08-26T00:04:44;7.95;;;1.75;;
41293;SDS011;27037;52.010;4.446;2022-08-26T00:07:10;9.10;;;1.73;;
41293;SDS011;27037;52.010;4.446;2022-08-26T00:09:36;11.75;;;1.42;;
41293;SDS011;27037;52.010;4.446;2022-08-26T00:12:02;9.65;;;1.70;;
41293;SDS011;27037;52.010;4.446;2022-08-26T00:14:29;9.73;;;1.67;;
41293;SDS011;27037;52.010;4.446;2022-08-26T00:16:54;7.07;;;1.67;;
41293;SDS011;27037;52.010;4.446;2022-08-26T00:19:20;9.27;;;1.50;;
41293;SDS011;27037;52.010;4.446;2022-08-26T00:21:46;8.85;;;1.60;;
41293;SDS011;27037;52.010;4.446;2022-08-26T00:24:13;8.02;;;1.60;;
41293;SDS011;27037;52.010;4.446;2022-08-26T00:26:39;8.20;;;1.40;;
41293;SDS011;27037;52.010;4.446;2022-08-26T00:29:04;8.70;;;1.60;;
41293;SDS011;27037;52.010;4.446;2022-08-26T00:31:30;7.28;;;1.60;;
41293;SDS011;27037;52.010;4.446;2022-08-26T00:33:56;6.22;;;1.67;;
41293;SDS011;27037;52.010;4.446;2022-08-26T00:36:22;11.60;;;1.60;;
41293;SDS011;27037;52.010;4.446;2022-08-26T00:38:48;9.30;;;1.70;;
41293;SDS011;27037;52.010;4.446;2022-08-26T00:41:13;6.07;;;1.60;;
41293;SDS011;27037;52.010;4.446;2022-08-26T00:43:39;7.68;;;1.73;;
41293;SDS011;27037;52.010;4.446;2022-08-26T00:48:38;12.70;;;1.63;;
41293;SDS011;27037;52.010;4.446;2022-08-26T00:51:10;9.45;;;1.40;;
41293;SDS011;27037;52.010;4.446;2022-08-26T00:53:40;4.65;;;1.20;;
41293;SDS011;27037;52.010;4.446;2022-08-26T00:56:20;8.15;;;1.42;;
41293;SDS011;27037;52.010;4.446;2022-08-26T00:58:56;7.50;;;1.48;;
41293;SDS011;27037;52.010;4.446;2022-08-26T01:01:26;5.28;;;1.55;;
41293;SDS011;27037;52.010;4.446;2022-08-26T01:03:52;11.25;;;1.52;;
41293;SDS011;27037;52.010;4.446;2022-08-26T01:06:19;9.40;;;1.58;;
41293;SDS011;27037;52.010;4.446;2022-08-26T01:08:47;8.45;;;1.60;;
41293;SDS011;27037;52.010;4.446;2022-08-26T01:11:13;6.95;;;1.38;;
41293;SDS011;27037;52.010;4.446;2022-08-26T01:13:40;10.43;;;1.30;;
41293;SDS011;27037;52.010;4.446;2022-08-26T01:16:06;7.47;;;1.38;;
41293;SDS011;27037;52.010;4.446;2022-08-26T01:18:36;7.38;;;1.52;;
41293;SDS011;27037;52.010;4.446;2022-08-26T01:21:20;10.95;;;1.52;;
41293;SDS011;27037;52.010;4.446;2022-08-26T01:23:52;10.43;;;1.63;;
41293;SDS011;27037;52.010;4.446;2022-08-26T01:26:24;6.25;;;1.63;;
41293;SDS011;27037;52.010;4.446;2022-08-26T01:28:54;6.00;;;1.30;;
41293;SDS011;27037;52.010;4.446;2022-08-26T01:31:23;9.73;;;1.95;;
41293;SDS011;27037;52.010;4.446;2022-08-26T01:33:54;10.60;;;1.58;;
41293;SDS011;27037;52.010;4.446;2022-08-26T01:36:25;11.18;;;1.80;;
41293;SDS011;27037;52.010;4.446;2022-08-26T01:38:51;10.65;;;1.40;;
41293;SDS011;27037;52.010;4.446;2022-08-26T01:41:17;8.30;;;1.58;;
41293;SDS011;27037;52.010;4.446;2022-08-26T01:43:44;8.95;;;1.75;;
41293;SDS011;27037;52.010;4.446;2022-08-26T01:46:13;10.77;;;1.60;;
41293;SDS011;27037;52.010;4.446;2022-08-26T01:48:40;6.78;;;1.45;;
41293;SDS011;27037;52.010;4.446;2022-08-26T01:51:08;6.45;;;1.40;;
41293;SDS011;27037;52.010;4.446;2022-08-26T01:53:35;10.20;;;1.65;;
41293;SDS011;27037;52.010;4.446;2022-08-26T01:56:02;8.20;;;1.80;;
41293;SDS011;27037;52.010;4.446;2022-08-26T01:58:31;7.90;;;1.17;;
41293;SDS011;27037;52.010;4.446;2022-08-26T02:01:04;9.70;;;1.40;;
41293;SDS011;27037;52.010;4.446;2022-08-26T02:03:30;11.73;;;1.30;;
41293;SDS011;27037;52.010;4.446;2022-08-26T02:06:00;6.38;;;1.50;;
41293;SDS011;27037;52.010;4.446;2022-08-26T02:08:30;6.50;;;1.23;;
41293;SDS011;27037;52.010;4.446;2022-08-26T02:11:27;7.72;;;1.50;;
41293;SDS011;27037;52.010;4.446;2022-08-26T02:13:55;5.70;;;1.13;;
41293;SDS011;27037;52.010;4.446;2022-08-26T02:16:25;9.00;;;1.40;;
41293;SDS011;27037;52.010;4.446;2022-08-26T02:18:54;4.38;;;1.25;;
41293;SDS011;27037;52.010;4.446;2022-08-26T02:21:20;10.02;;;1.35;;
41293;SDS011;27037;52.010;4.446;2022-08-26T02:23:46;7.40;;;1.60;;
41293;SDS011;27037;52.010;4.446;2022-08-26T02:26:13;6.72;;;1.45;;
41293;SDS011;27037;52.010;4.446;2022-08-26T02:28:44;7.50;;;1.30;;
41293;SDS011;27037;52.010;4.446;2022-08-26T02:31:22;9.23;;;1.50;;
41293;SDS011;27037;52.010;4.446;2022-08-26T02:33:49;6.10;;;1.50;;
41293;SDS011;27037;52.010;4.446;2022-08-26T02:36:19;7.68;;;1.50;;
41293;SDS011;27037;52.010;4.446;2022-08-26T02:38:46;8.07;;;1.23;;
41293;SDS011;27037;52.010;4.446;2022-08-26T02:41:11;10.80;;;1.33;;
41293;SDS011;27037;52.010;4.446;2022-08-26T02:43:37;6.70;;;1.30;;
41293;SDS011;27037;52.010;4.446;2022-08-26T02:46:02;5.93;;;1.40;;
41293;SDS011;27037;52.010;4.446;2022-08-26T02:48:28;3.90;;;1.00;;
41293;SDS011;27037;52.010;4.446;2022-08-26T02:50:54;7.93;;;1.30;;
41293;SDS011;27037;52.010;4.446;2022-08-26T02:53:20;5.95;;;1.20;;
41293;SDS011;27037;52.010;4.446;2022-08-26T02:55:45;6.30;;;1.27;;
41293;SDS011;27037;52.010;4.446;2022-08-26T02:58:13;6.50;;;0.95;;
41293;SDS011;27037;52.010;4.446;2022-08-26T03:00:40;8.65;;;1.27;;
41293;SDS011;27037;52.010;4.446;2022-08-26T03:03:06;8.40;;;1.10;;
41293;SDS011;27037;52.010;4.446;2022-08-26T03:05:32;5.00;;;1.13;;
41293;SDS011;27037;52.010;4.446;2022-08-26T03:07:58;9.57;;;1.38;;
41293;SDS011;27037;52.010;4.446;2022-08-26T03:10:24;6.78;;;1.20;;
41293;SDS011;27037;52.010;4.446;2022-08-26T03:12:49;7.60;;;1.23;;
41293;SDS011;27037;52.010;4.446;2022-08-26T03:15:16;7.47;;;1.10;;
41293;SDS011;27037;52.010;4.446;2022-08-26T03:17:43;6.68;;;1.33;;
41293;SDS011;27037;52.010;4.446;2022-08-26T03:20:10;9.88;;;1.25;;
41293;SDS011;27037;52.010;4.446;2022-08-26T03:22:36;4.65;;;1.00;;
41293;SDS011;27037;52.010;4.446;2022-08-26T03:25:05;8.45;;;1.10;;
41293;SDS011;27037;52.010;4.446;2022-08-26T03:27:32;6.47;;;1.08;;
41293;SDS011;27037;52.010;4.446;2022-08-26T03:29:59;4.60;;;1.00;;
41293;SDS011;27037;52.010;4.446;2022-08-26T03:32:43;3.33;;;1.13;;
41293;SDS011;27037;52.010;4.446;2022-08-26T03:35:09;8.45;;;1.30;;
41293;SDS011;27037;52.010;4.446;2022-08-26T03:37:36;6.65;;;1.27;;
41293;SDS011;27037;52.010;4.446;2022-08-26T03:40:03;9.60;;;1.25;;
41293;SDS011;27037;52.010;4.446;2022-08-26T03:42:31;8.85;;;1.15;;
41293;SDS011;27037;52.010;4.446;2022-08-26T03:44:58;7.05;;;1.15;;
41293;SDS011;27037;52.010;4.446;2022-08-26T03:47:23;6.78;;;1.42;;
41293;SDS011;27037;52.010;4.446;2022-08-26T03:49:49;3.75;;;1.10;;
41293;SDS011;27037;52.010;4.446;2022-08-26T03:52:15;4.75;;;1.05;;
41293;SDS011;27037;52.010;4.446;2022-08-26T03:54:40;6.25;;;1.00;;
41293;SDS011;27037;52.010;4.446;2022-08-26T03:57:06;6.18;;;1.15;;
41293;SDS011;27037;52.010;4.446;2022-08-26T03:59:33;6.38;;;1.15;;
41293;SDS011;27037;52.010;4.446;2022-08-26T04:01:58;3.95;;;0.90;;
41293;SDS011;27037;52.010;4.446;2022-08-26T04:04:24;4.53;;;0.90;;
41293;SDS011;27037;52.010;4.446;2022-08-26T04:06:54;6.43;;;1.08;;
41293;SDS011;27037;52.010;4.446;2022-08-26T04:09:22;6.82;;;0.98;;
41293;SDS011;27037;52.010;4.446;2022-08-26T04:11:48;8.32;;;1.00;;
41293;SDS011;27037;52.010;4.446;2022-08-26T04:14:15;4.43;;;1.20;;
41293;SDS011;27037;52.010;4.446;2022-08-26T04:16:44;3.55;;;1.10;;
41293;SDS011;27037;52.010;4.446;2022-08-26T04:19:10;3.40;;;0.80;;
41293;SDS011;27037;52.010;4.446;2022-08-26T04:21:37;6.10;;;1.05;;
41293;SDS011;27037;52.010;4.446;2022-08-26T04:24:03;6.70;;;1.48;;
41293;SDS011;27037;52.010;4.446;2022-08-26T04:26:30;8.15;;;1.20;;
41293;SDS011;27037;52.010;4.446;2022-08-26T04:29:02;7.15;;;1.10;;
41293;SDS011;27037;52.010;4.446;2022-08-26T04:31:33;7.72;;;1.25;;
41293;SDS011;27037;52.010;4.446;2022-08-26T04:33:59;5.05;;;1.00;;
41293;SDS011;27037;52.010;4.446;2022-08-26T04:36:25;8.45;;;1.08;;
41293;SDS011;27037;52.010;4.446;2022-08-26T04:38:51;13.05;;;1.30;;
41293;SDS011;27037;52.010;4.446;2022-08-26T04:41:17;13.50;;;1.30;;
41293;SDS011;27037;52.010;4.446;2022-08-26T04:43:44;8.85;;;1.75;;
41293;SDS011;27037;52.010;4.446;2022-08-26T04:46:12;9.88;;;1.40;;
41293;SDS011;27037;52.010;4.446;2022-08-26T04:48:40;13.73;;;1.80;;
41293;SDS011;27037;52.010;4.446;2022-08-26T04:51:06;11.15;;;1.38;;
41293;SDS011;27037;52.010;4.446;2022-08-26T04:53:32;10.02;;;1.63;;
41293;SDS011;27037;52.010;4.446;2022-08-26T04:55:57;12.60;;;2.03;;
41293;SDS011;27037;52.010;4.446;2022-08-26T04:58:23;14.50;;;1.50;;
41293;SDS011;27037;52.010;4.446;2022-08-26T05:00:50;9.20;;;1.83;;
41293;SDS011;27037;52.010;4.446;2022-08-26T05:03:17;8.57;;;1.60;;
41293;SDS011;27037;52.010;4.446;2022-08-26T05:05:44;6.15;;;1.20;;
41293;SDS011;27037;52.010;4.446;2022-08-26T05:08:11;9.35;;;1.10;;
41293;SDS011;27037;52.010;4.446;2022-08-26T05:10:40;7.45;;;1.42;;
41293;SDS011;27037;52.010;4.446;2022-08-26T05:13:06;9.93;;;1.50;;
41293;SDS011;27037;52.010;4.446;2022-08-26T05:15:33;9.52;;;1.30;;
41293;SDS011;27037;52.010;4.446;2022-08-26T05:18:00;8.02;;;1.50;;
41293;SDS011;27037;52.010;4.446;2022-08-26T05:20:29;9.35;;;1.52;;
41293;SDS011;27037;52.010;4.446;2022-08-26T05:22:57;10.00;;;1.30;;
41293;SDS011;27037;52.010;4.446;2022-08-26T05:25:24;4.90;;;1.17;;
41293;SDS011;27037;52.010;4.446;2022-08-26T05:27:51;6.93;;;1.20;;
41293;SDS011;27037;52.010;4.446;2022-08-26T05:30:17;8.38;;;1.10;;
41293;SDS011;27037;52.010;4.446;2022-08-26T05:32:46;11.05;;;1.10;;
41293;SDS011;27037;52.010;4.446;2022-08-26T05:35:12;9.77;;;1.42;;
41293;SDS011;27037;52.010;4.446;2022-08-26T05:37:38;10.27;;;1.60;;
41293;SDS011;27037;52.010;4.446;2022-08-26T05:40:04;7.50;;;0.98;;
41293;SDS011;27037;52.010;4.446;2022-08-26T05:42:30;8.60;;;1.20;;
41293;SDS011;27037;52.010;4.446;2022-08-26T05:44:56;7.55;;;1.20;;
41293;SDS011;27037;52.010;4.446;2022-08-26T05:47:22;8.98;;;1.27;;
41293;SDS011;27037;52.010;4.446;2022-08-26T05:49:48;6.97;;;1.25;;
41293;SDS011;27037;52.010;4.446;2022-08-26T05:52:14;5.20;;;1.10;;
41293;SDS011;27037;52.010;4.446;2022-08-26T05:54:40;10.23;;;1.30;;
41293;SDS011;27037;52.010;4.446;2022-08-26T05:57:05;11.43;;;1.33;;
41293;SDS011;27037;52.010;4.446;2022-08-26T05:59:31;10.20;;;1.50;;
41293;SDS011;27037;52.010;4.446;2022-08-26T06:01:56;11.90;;;1.50;;
41293;SDS011;27037;52.010;4.446;2022-08-26T06:04:23;8.98;;;1.30;;
41293;SDS011;27037;52.010;4.446;2022-08-26T06:06:50;7.05;;;1.15;;
41293;SDS011;27037;52.010;4.446;2022-08-26T06:09:15;14.00;;;1.30;;
41293;SDS011;27037;52.010;4.446;2022-08-26T06:11:41;10.38;;;1.50;;
41293;SDS011;27037;52.010;4.446;2022-08-26T06:14:07;7.80;;;1.00;;
41293;SDS011;27037;52.010;4.446;2022-08-26T06:16:35;7.78;;;1.08;;
41293;SDS011;27037;52.010;4.446;2022-08-26T06:19:03;13.43;;;1.30;;
41293;SDS011;27037;52.010;4.446;2022-08-26T06:21:33;9.68;;;1.10;;
41293;SDS011;27037;52.010;4.446;2022-08-26T06:24:03;11.63;;;1.02;;
41293;SDS011;27037;52.010;4.446;2022-08-26T06:26:58;11.02;;;1.30;;
41293;SDS011;27037;52.010;4.446;2022-08-26T06:29:26;7.60;;;0.90;;
41293;SDS011;27037;52.010;4.446;2022-08-26T06:31:54;7.35;;;1.10;;
41293;SDS011;27037;52.010;4.446;2022-08-26T06:34:20;5.90;;;1.13;;
41293;SDS011;27037;52.010;4.446;2022-08-26T06:36:46;12.93;;;1.80;;
41293;SDS011;27037;52.010;4.446;2022-08-26T06:39:14;5.10;;;0.93;;
41293;SDS011;27037;52.010;4.446;2022-08-26T06:41:41;7.45;;;1.10;;
41293;SDS011;27037;52.010;4.446;2022-08-26T06:44:09;8.80;;;1.00;;
41293;SDS011;27037;52.010;4.446;2022-08-26T06:46:36;9.00;;;1.50;;
41293;SDS011;27037;52.010;4.446;2022-08-26T06:49:02;16.50;;;1.73;;
41293;SDS011;27037;52.010;4.446;2022-08-26T06:51:29;11.15;;;1.60;;
41293;SDS011;27037;52.010;4.446;2022-08-26T06:53:57;8.20;;;1.42;;
41293;SDS011;27037;52.010;4.446;2022-08-26T06:56:25;7.85;;;0.88;;
41293;SDS011;27037;52.010;4.446;2022-08-26T06:58:53;8.85;;;1.10;;
41293;SDS011;27037;52.010;4.446;2022-08-26T07:01:20;11.43;;;1.42;;
41293;SDS011;27037;52.010;4.446;2022-08-26T07:03:49;7.85;;;1.02;;
41293;SDS011;27037;52.010;4.446;2022-08-26T07:06:16;7.13;;;1.00;;
41293;SDS011;27037;52.010;4.446;2022-08-26T07:08:43;5.18;;;1.00;;
41293;SDS011;27037;52.010;4.446;2022-08-26T07:11:10;6.40;;;1.10;;
41293;SDS011;27037;52.010;4.446;2022-08-26T07:13:37;6.43;;;1.05;;
41293;SDS011;27037;52.010;4.446;2022-08-26T07:16:06;5.30;;;0.70;;
41293;SDS011;27037;52.010;4.446;2022-08-26T07:18:34;4.05;;;0.70;;
41293;SDS011;27037;52.010;4.446;2022-08-26T07:21:01;6.35;;;0.90;;
41293;SDS011;27037;52.010;4.446;2022-08-26T07:23:28;6.25;;;1.20;;
41293;SDS011;27037;52.010;4.446;2022-08-26T07:25:54;5.82;;;0.95;;
41293;SDS011;27037;52.010;4.446;2022-08-26T07:28:20;6.43;;;0.82;;
41293;SDS011;27037;52.010;4.446;2022-08-26T07:30:46;7.70;;;0.90;;
41293;SDS011;27037;52.010;4.446;2022-08-26T07:33:12;5.70;;;0.80;;
41293;SDS011;27037;52.010;4.446;2022-08-26T07:35:38;7.85;;;1.42;;
41293;SDS011;27037;52.010;4.446;2022-08-26T07:38:04;5.45;;;0.70;;
41293;SDS011;27037;52.010;4.446;2022-08-26T07:40:29;7.28;;;1.00;;
41293;SDS011;27037;52.010;4.446;2022-08-26T07:42:55;8.23;;;1.13;;
41293;SDS011;27037;52.010;4.446;2022-08-26T07:45:21;4.90;;;0.80;;
41293;SDS011;27037;52.010;4.446;2022-08-26T07:47:47;9.13;;;1.10;;
41293;SDS011;27037;52.010;4.446;2022-08-26T07:50:13;3.17;;;0.85;;
41293;SDS011;27037;52.010;4.446;2022-08-26T07:52:38;6.18;;;0.80;;
41293;SDS011;27037;52.010;4.446;2022-08-26T07:55:05;5.60;;;1.08;;
41293;SDS011;27037;52.010;4.446;2022-08-26T07:57:34;5.45;;;0.80;;
41293;SDS011;27037;52.010;4.446;2022-08-26T08:00:00;5.25;;;0.90;;
41293;SDS011;27037;52.010;4.446;2022-08-26T08:02:27;7.57;;;1.10;;
41293;SDS011;27037;52.010;4.446;2022-08-26T08:04:54;4.47;;;1.20;;
41293;SDS011;27037;52.010;4.446;2022-08-26T08:07:21;6.65;;;0.80;;
41293;SDS011;27037;52.010;4.446;2022-08-26T08:09:47;8.10;;;0.80;;
41293;SDS011;27037;52.010;4.446;2022-08-26T08:12:14;4.32;;;0.75;;
41293;SDS011;27037;52.010;4.446;2022-08-26T08:14:40;6.22;;;0.80;;
41293;SDS011;27037;52.010;4.446;2022-08-26T08:17:09;6.50;;;0.80;;
41293;SDS011;27037;52.010;4.446;2022-08-26T08:19:35;6.97;;;1.33;;
41293;SDS011;27037;52.010;4.446;2022-08-26T08:22:00;7.05;;;1.10;;
41293;SDS011;27037;52.010;4.446;2022-08-26T08:24:28;8.30;;;1.00;;
41293;SDS011;27037;52.010;4.446;2022-08-26T08:26:58;7.30;;;0.98;;
41293;SDS011;27037;52.010;4.446;2022-08-26T08:29:25;5.43;;;1.05;;
41293;SDS011;27037;52.010;4.446;2022-08-26T08:31:53;6.32;;;0.70;;
41293;SDS011;27037;52.010;4.446;2022-08-26T08:34:23;4.35;;;0.95;;
41293;SDS011;27037;52.010;4.446;2022-08-26T08:36:50;3.55;;;0.93;;
41293;SDS011;27037;52.010;4.446;2022-08-26T08:39:16;5.43;;;0.80;;
41293;SDS011;27037;52.010;4.446;2022-08-26T08:44:30;5.80;;;1.02;;
41293;SDS011;27037;52.010;4.446;2022-08-26T08:46:58;3.88;;;0.70;;
41293;SDS011;27037;52.010;4.446;2022-08-26T08:49:29;4.05;;;0.77;;
41293;SDS011;27037;52.010;4.446;2022-08-26T08:51:59;4.03;;;0.70;;
41293;SDS011;27037;52.010;4.446;2022-08-26T08:54:37;3.28;;;0.75;;
41293;SDS011;27037;52.010;4.446;2022-08-26T08:57:09;2.80;;;0.75;;
41293;SDS011;27037;52.010;4.446;2022-08-26T08:59:43;6.65;;;0.85;;
41293;SDS011;27037;52.010;4.446;2022-08-26T09:02:23;4.63;;;0.77;;
41293;SDS011;27037;52.010;4.446;2022-08-26T09:07:47;8.02;;;0.88;;
41293;SDS011;27037;52.010;4.446;2022-08-26T09:12:48;4.07;;;0.73;;
41293;SDS011;27037;52.010;4.446;2022-08-26T09:21:05;10.93;;;1.45;;
41293;SDS011;27037;52.010;4.446;2022-08-26T09:23:33;6.32;;;1.00;;
41293;SDS011;27037;52.010;4.446;2022-08-26T09:26:12;5.05;;;1.10;;
41293;SDS011;27037;52.010;4.446;2022-08-26T09:28:47;6.47;;;1.17;;
41293;SDS011;27037;52.010;4.446;2022-08-26T09:33:47;15.50;;;2.15;;
41293;SDS011;27037;52.010;4.446;2022-08-26T09:39:02;5.28;;;1.20;;
41293;SDS011;27037;52.010;4.446;2022-08-26T09:41:30;5.60;;;1.42;;
41293;SDS011;27037;52.010;4.446;2022-08-26T09:46:28;10.23;;;1.30;;
41293;SDS011;27037;52.010;4.446;2022-08-26T09:48:55;6.50;;;1.60;;
41293;SDS011;27037;52.010;4.446;2022-08-26T09:53:55;3.97;;;1.10;;
41293;SDS011;27037;52.010;4.446;2022-08-26T09:56:33;6.88;;;1.48;;
41293;SDS011;27037;52.010;4.446;2022-08-26T09:59:01;6.45;;;1.65;;
41293;SDS011;27037;52.010;4.446;2022-08-26T10:03:52;6.15;;;1.50;;
41293;SDS011;27037;52.010;4.446;2022-08-26T10:06:33;6.50;;;1.20;;
41293;SDS011;27037;52.010;4.446;2022-08-26T10:09:04;9.95;;;1.40;;
41293;SDS011;27037;52.010;4.446;2022-08-26T10:14:12;6.97;;;1.70;;
41293;SDS011;27037;52.010;4.446;2022-08-26T10:19:31;8.38;;;1.48;;
41293;SDS011;27037;52.010;4.446;2022-08-26T10:22:03;8.03;;;1.30;;
41293;SDS011;27037;52.010;4.446;2022-08-26T10:24:37;5.65;;;1.10;;
41293;SDS011;27037;52.010;4.446;2022-08-26T10:29:45;10.13;;;1.67;;
41293;SDS011;27037;52.010;4.446;2022-08-26T10:32:23;9.23;;;1.60;;
41293;SDS011;27037;52.010;4.446;2022-08-26T10:34:54;7.53;;;1.30;;
41293;SDS011;27037;52.010;4.446;2022-08-26T10:37:21;5.00;;;1.23;;
41293;SDS011;27037;52.010;4.446;2022-08-26T10:39:59;6.93;;;1.27;;
41293;SDS011;27037;52.010;4.446;2022-08-26T10:42:38;7.20;;;1.30;;
41293;SDS011;27037;52.010;4.446;2022-08-26T10:47:53;5.47;;;1.38;;
41293;SDS011;27037;52.010;4.446;2022-08-26T10:50:34;3.55;;;1.33;;
41293;SDS011;27037;52.010;4.446;2022-08-26T10:56:17;5.63;;;1.17;;
41293;SDS011;27037;52.010;4.446;2022-08-26T11:04:25;6.65;;;1.30;;
41293;SDS011;27037;52.010;4.446;2022-08-26T11:20:10;6.78;;;1.40;;
41293;SDS011;27037;52.010;4.446;2022-08-26T11:26:11;5.40;;;1.10;;
41293;SDS011;27037;52.010;4.446;2022-08-26T11:31:00;9.05;;;1.40;;
41293;SDS011;27037;52.010;4.446;2022-08-26T11:36:35;8.25;;;1.52;;
41293;SDS011;27037;52.010;4.446;2022-08-26T11:42:13;15.00;;;1.40;;
41293;SDS011;27037;52.010;4.446;2022-08-26T11:44:54;7.25;;;1.45;;
41293;SDS011;27037;52.010;4.446;2022-08-26T11:47:26;7.80;;;1.48;;
41293;SDS011;27037;52.010;4.446;2022-08-26T11:52:34;5.30;;;1.02;;
41293;SDS011;27037;52.010;4.446;2022-08-26T11:55:02;8.80;;;1.65;;
41293;SDS011;27037;52.010;4.446;2022-08-26T11:57:31;7.68;;;1.27;;
41293;SDS011;27037;52.010;4.446;2022-08-26T11:59:59;11.27;;;1.25;;
41293;SDS011;27037;52.010;4.446;2022-08-26T12:02:26;8.60;;;1.38;;
41293;SDS011;27037;52.010;4.446;2022-08-26T12:04:52;9.43;;;1.33;;
41293;SDS011;27037;52.010;4.446;2022-08-26T12:07:22;8.73;;;1.45;;
41293;SDS011;27037;52.010;4.446;2022-08-26T12:09:58;7.13;;;1.40;;
41293;SDS011;27037;52.010;4.446;2022-08-26T12:12:29;5.35;;;1.27;;
41293;SDS011;27037;52.010;4.446;2022-08-26T12:15:07;9.07;;;1.60;;
41293;SDS011;27037;52.010;4.446;2022-08-26T12:17:38;6.55;;;1.63;;
41293;SDS011;27037;52.010;4.446;2022-08-26T12:20:05;8.75;;;1.33;;
41293;SDS011;27037;52.010;4.446;2022-08-26T12:22:41;9.80;;;1.80;;
41293;SDS011;27037;52.010;4.446;2022-08-26T12:25:07;12.00;;;1.50;;
41293;SDS011;27037;52.010;4.446;2022-08-26T12:27:37;4.05;;;1.30;;
41293;SDS011;27037;52.010;4.446;2022-08-26T12:30:07;6.28;;;1.25;;
41293;SDS011;27037;52.010;4.446;2022-08-26T12:32:40;5.05;;;1.05;;
41293;SDS011;27037;52.010;4.446;2022-08-26T12:35:13;5.20;;;1.30;;
41293;SDS011;27037;52.010;4.446;2022-08-26T12:37:42;6.65;;;1.27;;
41293;SDS011;27037;52.010;4.446;2022-08-26T12:42:54;6.80;;;1.15;;
41293;SDS011;27037;52.010;4.446;2022-08-26T12:45:41;6.32;;;1.30;;
41293;SDS011;27037;52.010;4.446;2022-08-26T12:48:21;6.03;;;1.27;;
41293;SDS011;27037;52.010;4.446;2022-08-26T12:50:59;7.03;;;1.23;;
41293;SDS011;27037;52.010;4.446;2022-08-26T12:53:30;9.57;;;1.42;;
41293;SDS011;27037;52.010;4.446;2022-08-26T12:55:58;6.15;;;1.23;;
41293;SDS011;27037;52.010;4.446;2022-08-26T12:58:34;7.43;;;1.20;;
41293;SDS011;27037;52.010;4.446;2022-08-26T13:12:14;6.47;;;1.20;;
41293;SDS011;27037;52.010;4.446;2022-08-26T13:14:17;6.30;;;1.27;;
41293;SDS011;27037;52.010;4.446;2022-08-26T13:16:44;6.68;;;1.40;;
41293;SDS011;27037;52.010;4.446;2022-08-26T13:19:11;7.32;;;1.23;;
41293;SDS011;27037;52.010;4.446;2022-08-26T13:21:40;5.45;;;1.50;;
41293;SDS011;27037;52.010;4.446;2022-08-26T13:24:14;9.40;;;1.60;;
41293;SDS011;27037;52.010;4.446;2022-08-26T13:26:42;9.18;;;1.20;;
41293;SDS011;27037;52.010;4.446;2022-08-26T13:29:09;5.78;;;1.40;;
41293;SDS011;27037;52.010;4.446;2022-08-26T13:31:36;7.47;;;1.20;;
41293;SDS011;27037;52.010;4.446;2022-08-26T13:34:04;5.88;;;1.27;;
41293;SDS011;27037;52.010;4.446;2022-08-26T13:36:31;4.28;;;1.20;;
41293;SDS011;27037;52.010;4.446;2022-08-26T13:38:57;6.22;;;1.38;;
41293;SDS011;27037;52.010;4.446;2022-08-26T13:41:22;6.72;;;1.58;;
41293;SDS011;27037;52.010;4.446;2022-08-26T13:43:48;6.78;;;1.40;;
41293;SDS011;27037;52.010;4.446;2022-08-26T13:46:14;8.20;;;1.27;;
41293;SDS011;27037;52.010;4.446;2022-08-26T13:48:39;7.38;;;1.50;;
41293;SDS011;27037;52.010;4.446;2022-08-26T13:51:05;5.72;;;1.25;;
41293;SDS011;27037;52.010;4.446;2022-08-26T13:53:31;6.05;;;1.17;;
41293;SDS011;27037;52.010;4.446;2022-08-26T13:55:57;8.55;;;1.23;;
41293;SDS011;27037;52.010;4.446;2022-08-26T13:58:24;9.88;;;1.60;;
41293;SDS011;27037;52.010;4.446;2022-08-26T14:00:50;7.82;;;1.52;;
41293;SDS011;27037;52.010;4.446;2022-08-26T14:03:16;6.07;;;1.45;;
41293;SDS011;27037;52.010;4.446;2022-08-26T14:05:42;6.15;;;1.27;;
41293;SDS011;27037;52.010;4.446;2022-08-26T14:08:08;6.07;;;1.52;;
41293;SDS011;27037;52.010;4.446;2022-08-26T14:10:34;7.22;;;1.77;;
41293;SDS011;27037;52.010;4.446;2022-08-26T14:13:00;6.93;;;1.45;;
41293;SDS011;27037;52.010;4.446;2022-08-26T14:15:25;5.30;;;1.38;;
41293;SDS011;27037;52.010;4.446;2022-08-26T14:17:52;5.78;;;1.40;;
41293;SDS011;27037;52.010;4.446;2022-08-26T14:20:28;6.65;;;1.50;;
41293;SDS011;27037;52.010;4.446;2022-08-26T14:22:55;4.53;;;1.10;;
41293;SDS011;27037;52.010;4.446;2022-08-26T14:25:20;6.43;;;1.58;;
41293;SDS011;27037;52.010;4.446;2022-08-26T14:27:47;7.75;;;1.30;;
41293;SDS011;27037;52.010;4.446;2022-08-26T14:30:14;6.55;;;1.10;;
41293;SDS011;27037;52.010;4.446;2022-08-26T14:32:44;4.72;;;1.42;;
41293;SDS011;27037;52.010;4.446;2022-08-26T14:35:15;7.10;;;1.45;;
41293;SDS011;27037;52.010;4.446;2022-08-26T14:37:43;6.85;;;1.23;;
41293;SDS011;27037;52.010;4.446;2022-08-26T14:40:09;8.60;;;1.60;;
41293;SDS011;27037;52.010;4.446;2022-08-26T14:42:38;5.60;;;1.30;;
41293;SDS011;27037;52.010;4.446;2022-08-26T14:45:06;5.25;;;1.40;;
41293;SDS011;27037;52.010;4.446;2022-08-26T14:47:33;4.97;;;1.55;;
41293;SDS011;27037;52.010;4.446;2022-08-26T14:49:59;6.68;;;1.80;;
41293;SDS011;27037;52.010;4.446;2022-08-26T14:52:24;5.05;;;1.35;;
41293;SDS011;27037;52.010;4.446;2022-08-26T14:54:50;5.45;;;1.30;;
41293;SDS011;27037;52.010;4.446;2022-08-26T14:57:16;5.40;;;1.48;;
41293;SDS011;27037;52.010;4.446;2022-08-26T14:59:42;5.03;;;1.40;;
41293;SDS011;27037;52.010;4.446;2022-08-26T15:02:10;8.07;;;1.60;;
41293;SDS011;27037;52.010;4.446;2022-08-26T15:04:38;6.65;;;1.77;;
41293;SDS011;27037;52.010;4.446;2022-08-26T15:07:04;7.30;;;1.48;;
41293;SDS011;27037;52.010;4.446;2022-08-26T15:09:32;6.55;;;1.40;;
41293;SDS011;27037;52.010;4.446;2022-08-26T15:11:59;6.25;;;1.30;;
41293;SDS011;27037;52.010;4.446;2022-08-26T15:14:25;7.40;;;1.50;;
41293;SDS011;27037;52.010;4.446;2022-08-26T15:16:52;8.13;;;2.00;;
41293;SDS011;27037;52.010;4.446;2022-08-26T15:19:20;6.32;;;1.80;;
41293;SDS011;27037;52.010;4.446;2022-08-26T15:21:47;7.47;;;1.77;;
41293;SDS011;27037;52.010;4.446;2022-08-26T15:24:13;5.70;;;1.70;;
41293;SDS011;27037;52.010;4.446;2022-08-26T15:26:40;7.45;;;1.80;;
41293;SDS011;27037;52.010;4.446;2022-08-26T15:29:06;7.00;;;1.30;;
41293;SDS011;27037;52.010;4.446;2022-08-26T15:31:32;5.88;;;1.50;;
41293;SDS011;27037;52.010;4.446;2022-08-26T15:34:07;5.10;;;1.65;;
41293;SDS011;27037;52.010;4.446;2022-08-26T15:36:34;4.95;;;1.95;;
41293;SDS011;27037;52.010;4.446;2022-08-26T15:39:02;4.20;;;1.80;;
41293;SDS011;27037;52.010;4.446;2022-08-26T15:41:29;6.40;;;1.50;;
41293;SDS011;27037;52.010;4.446;2022-08-26T15:43:55;5.55;;;1.70;;
41293;SDS011;27037;52.010;4.446;2022-08-26T15:46:21;6.57;;;1.60;;
41293;SDS011;27037;52.010;4.446;2022-08-26T15:48:46;7.75;;;1.85;;
41293;SDS011;27037;52.010;4.446;2022-08-26T15:51:22;6.13;;;1.70;;
41293;SDS011;27037;52.010;4.446;2022-08-26T15:53:50;6.93;;;2.03;;
41293;SDS011;27037;52.010;4.446;2022-08-26T15:56:16;7.82;;;1.40;;
41293;SDS011;27037;52.010;4.446;2022-08-26T15:58:42;6.35;;;1.80;;
41293;SDS011;27037;52.010;4.446;2022-08-26T16:01:08;7.95;;;1.83;;
41293;SDS011;27037;52.010;4.446;2022-08-26T16:03:34;5.55;;;1.75;;
41293;SDS011;27037;52.010;4.446;2022-08-26T16:06:00;4.22;;;1.80;;
41293;SDS011;27037;52.010;4.446;2022-08-26T16:08:26;7.00;;;1.80;;
41293;SDS011;27037;52.010;4.446;2022-08-26T16:10:52;8.85;;;1.90;;
41293;SDS011;27037;52.010;4.446;2022-08-26T16:13:18;6.55;;;2.15;;
41293;SDS011;27037;52.010;4.446;2022-08-26T16:15:44;5.13;;;1.90;;
41293;SDS011;27037;52.010;4.446;2022-08-26T16:18:11;6.22;;;1.67;;
41293;SDS011;27037;52.010;4.446;2022-08-26T16:20:38;6.75;;;1.90;;
41293;SDS011;27037;52.010;4.446;2022-08-26T16:23:12;6.78;;;2.22;;